Map

Track Data

SID SEASON NUMBER BASIN SUBBASIN NAME ISO_TIME NATURE LAT LON WMO_WIND WMO_PRES WMO_AGENCY TRACK_TYPE DIST2LAND LANDFALL IFLAG USA_AGENCY USA_ATCF_ID USA_LAT USA_LON USA_RECORD USA_STATUS USA_WIND USA_PRES USA_SSHS USA_R34_NE USA_R34_SE USA_R34_SW USA_R34_NW USA_R50_NE USA_R50_SE USA_R50_SW USA_R50_NW USA_R64_NE USA_R64_SE USA_R64_SW USA_R64_NW USA_POCI USA_ROCI USA_RMW USA_EYE TOKYO_LAT TOKYO_LON TOKYO_GRADE TOKYO_WIND TOKYO_PRES TOKYO_R50_DIR TOKYO_R50_LONG TOKYO_R50_SHORT TOKYO_R30_DIR TOKYO_R30_LONG TOKYO_R30_SHORT TOKYO_LAND CMA_LAT CMA_LON CMA_CAT CMA_WIND CMA_PRES HKO_LAT HKO_LON HKO_CAT HKO_WIND HKO_PRES NEWDELHI_LAT NEWDELHI_LON NEWDELHI_GRADE NEWDELHI_WIND NEWDELHI_PRES NEWDELHI_CI NEWDELHI_DP NEWDELHI_POCI REUNION_LAT REUNION_LON REUNION_TYPE REUNION_WIND REUNION_PRES REUNION_TNUM REUNION_CI REUNION_RMW REUNION_R34_NE REUNION_R34_SE REUNION_R34_SW REUNION_R34_NW REUNION_R50_NE REUNION_R50_SE REUNION_R50_SW REUNION_R50_NW REUNION_R64_NE REUNION_R64_SE REUNION_R64_SW REUNION_R64_NW BOM_LAT BOM_LON BOM_TYPE BOM_WIND BOM_PRES BOM_TNUM BOM_CI BOM_RMW BOM_R34_NE BOM_R34_SE BOM_R34_SW BOM_R34_NW BOM_R50_NE BOM_R50_SE BOM_R50_SW BOM_R50_NW BOM_R64_NE BOM_R64_SE BOM_R64_SW BOM_R64_NW BOM_ROCI BOM_POCI BOM_EYE BOM_POS_METHOD BOM_PRES_METHOD NADI_LAT NADI_LON NADI_CAT NADI_WIND NADI_PRES WELLINGTON_LAT WELLINGTON_LON WELLINGTON_WIND WELLINGTON_PRES DS824_LAT DS824_LON DS824_STAGE DS824_WIND DS824_PRES TD9636_LAT TD9636_LON TD9636_STAGE TD9636_WIND TD9636_PRES TD9635_LAT TD9635_LON TD9635_WIND TD9635_PRES TD9635_ROCI NEUMANN_LAT NEUMANN_LON NEUMANN_CLASS NEUMANN_WIND NEUMANN_PRES MLC_LAT MLC_LON MLC_CLASS MLC_WIND MLC_PRES USA_GUST BOM_GUST BOM_GUST_PER REUNION_GUST REUNION_GUST_PER USA_SEAHGT USA_SEARAD_NE USA_SEARAD_SE USA_SEARAD_SW USA_SEARAD_NW STORM_SPEED STORM_DIR
1957072S20043 1957 21 SI MM NOT_NAMED 1957-03-13 06:00:00 NR -19.9000 42.9000 reunion main 142 142 _____O________ -1 -19.9000 42.9000 99 9.90000 2 253
1957072S20043 1957 21 SI MM NOT_NAMED 1957-03-13 09:00:00 NR -19.9331 42.7875 main 151 151 _____P________ -1 -19.9331 42.7875 99 2 249
1957072S20043 1957 21 SI MM NOT_NAMED 1957-03-13 12:00:00 NR -19.9725 42.6964 main 153 153 _____P________ -1 -19.9725 42.6964 99 2 235
1957072S20043 1957 21 SI MM NOT_NAMED 1957-03-13 15:00:00 NR -20.0248 42.6479 main 162 147 _____P________ -1 -20.0248 42.6479 99 1 200
1957072S20043 1957 21 SI MM NOT_NAMED 1957-03-13 18:00:00 NR -20.0962 42.6636 main 147 132 _____P________ -1 -20.0962 42.6636 99 2 147
1957072S20043 1957 21 SI MM NOT_NAMED 1957-03-13 21:00:00 NR -20.1933 42.7648 main 132 109 _____P________ -1 -20.1933 42.7648 99 4 128
1957072S20043 1957 21 SI MM NOT_NAMED 1957-03-14 00:00:00 NR -20.3224 42.9732 main 109 70 _____P________ -1 -20.3224 42.9732 99 6 120
1957072S20043 1957 21 SI MM NOT_NAMED 1957-03-14 03:00:00 NR -20.4894 43.3108 main 70 15 _____P________ -1 -20.4894 43.3108 99 9 116
1957072S20043 1957 21 SI MM NOT_NAMED 1957-03-14 06:00:00 NR -20.7000 43.8000 reunion main 15 0 _____O________ -1 -20.7000 43.8000 99 9.90000 12 114
1957072S20043 1957 21 SI MM NOT_NAMED 1957-03-14 09:00:00 NR -20.9564 44.4534 main 0 0 _____P________ -1 -20.9564 44.4534 99 15 112
1957072S20043 1957 21 SI MM NOT_NAMED 1957-03-14 12:00:00 NR -21.2488 45.2419 main 0 0 _____P________ -1 -21.2488 45.2419 99 17 111
1957072S20043 1957 21 SI MM NOT_NAMED 1957-03-14 15:00:00 NR -21.5645 46.1250 main 0 0 _____P________ -1 -21.5645 46.1250 99 18 111
1957072S20043 1957 21 SI MM NOT_NAMED 1957-03-14 18:00:00 NR -21.8914 47.0617 main 0 0 _____P________ -1 -21.8914 47.0617 99 19 110
1957072S20043 1957 21 SI MM NOT_NAMED 1957-03-14 21:00:00 NR -22.2184 48.0103 main 0 0 _____P________ -1 -22.2184 48.0103 99 18 110
1957072S20043 1957 21 SI MM NOT_NAMED 1957-03-15 00:00:00 NR -22.5348 48.9282 main 98 98 _____P________ -1 -22.5348 48.9282 99 17 111
1957072S20043 1957 21 SI MM NOT_NAMED 1957-03-15 03:00:00 NR -22.8315 49.7725 main 196 196 _____P________ -1 -22.8315 49.7725 99 16 111
1957072S20043 1957 21 SI MM NOT_NAMED 1957-03-15 06:00:00 NR -23.1000 50.5000 reunion main 274 274 _____O________ -1 -23.1000 50.5000 99 9.90000 13 113
1957072S20043 1957 21 SI MM NOT_NAMED 1957-03-15 09:00:00 NR -23.3348 51.0778 main 339 339 _____P________ -1 -23.3348 51.0778 99 10 115
1957072S20043 1957 21 SI MM NOT_NAMED 1957-03-15 12:00:00 NR -23.5395 51.5150 main 383 383 _____P________ -1 -23.5395 51.5150 99 8 119
1957072S20043 1957 21 SI MM NOT_NAMED 1957-03-15 15:00:00 NR -23.7192 51.8313 main 417 417 _____P________ -1 -23.7192 51.8313 99 6 125
1957072S20043 1957 21 SI MM NOT_NAMED 1957-03-15 18:00:00 NR -23.8788 52.0466 main 441 438 _____P________ -1 -23.8788 52.0466 99 4 134
1957072S20043 1957 21 SI MM NOT_NAMED 1957-03-15 21:00:00 NR -24.0227 52.1810 main 438 438 _____P________ -1 -24.0227 52.1810 99 3 145
1957072S20043 1957 21 SI MM NOT_NAMED 1957-03-16 00:00:00 NR -24.1548 52.2546 main 446 446 _____P________ -1 -24.1548 52.2546 99 3 159
1957072S20043 1957 21 SI MM NOT_NAMED 1957-03-16 03:00:00 NR -24.2793 52.2875 main 454 454 _____P________ -1 -24.2793 52.2875 99 3 173
1957072S20043 1957 21 SI MM NOT_NAMED 1957-03-16 06:00:00 NR -24.4000 52.3000 reunion main 463 _____O________ -1 -24.4000 52.3000 99 9.90000 2 0

About IBTrACS Database

This database is a web-friendly format of International Best Track Archive for Climate Stewardship (IBTrACS), a global best track data archive curated by NOAA dating back to 1842.

Updated: 2021-10-21